sensor_id;sensor_type;location;lat;lon;timestamp;pressure;altitude;pressure_sealevel;temperature;humidity
42621;BME280;28252;53.336;-6.298;2022-12-20T00:00:00;99053.16;;;22.03;46.84
42621;BME280;28252;53.336;-6.298;2022-12-20T00:00:32;99053.16;;;22.03;46.86
42621;BME280;28252;53.336;-6.298;2022-12-20T00:01:10;99054.81;;;22.04;46.87
42621;BME280;28252;53.336;-6.298;2022-12-20T00:01:42;99056.50;;;22.05;46.76
42621;BME280;28252;53.336;-6.298;2022-12-20T00:02:14;99057.31;;;22.06;46.82
42621;BME280;28252;53.336;-6.298;2022-12-20T00:02:46;99051.06;;;22.05;46.74
42621;BME280;28252;53.336;-6.298;2022-12-20T00:03:18;99046.69;;;22.04;46.76
42621;BME280;28252;53.336;-6.298;2022-12-20T00:03:51;99047.72;;;22.03;46.85
42621;BME280;28252;53.336;-6.298;2022-12-20T00:04:23;99054.00;;;22.04;46.88
42621;BME280;28252;53.336;-6.298;2022-12-20T00:04:54;99051.28;;;22.04;46.71
42621;BME280;28252;53.336;-6.298;2022-12-20T00:05:26;99054.22;;;22.02;46.80
42621;BME280;28252;53.336;-6.298;2022-12-20T00:05:57;99051.94;;;21.99;47.07
42621;BME280;28252;53.336;-6.298;2022-12-20T00:06:29;99048.19;;;22.00;46.79
42621;BME280;28252;53.336;-6.298;2022-12-20T00:07:00;99053.84;;;21.98;46.90
42621;BME280;28252;53.336;-6.298;2022-12-20T00:07:32;99053.25;;;21.96;47.02
42621;BME280;28252;53.336;-6.298;2022-12-20T00:08:04;99047.56;;;21.98;46.97
42621;BME280;28252;53.336;-6.298;2022-12-20T00:08:36;99053.25;;;21.96;47.12
42621;BME280;28252;53.336;-6.298;2022-12-20T00:09:08;99049.47;;;21.97;46.89
42621;BME280;28252;53.336;-6.298;2022-12-20T00:09:39;99046.97;;;21.96;47.06
42621;BME280;28252;53.336;-6.298;2022-12-20T00:10:11;99048.63;;;21.97;46.97
42621;BME280;28252;53.336;-6.298;2022-12-20T00:10:44;99050.28;;;21.98;46.90
42621;BME280;28252;53.336;-6.298;2022-12-20T00:11:15;99046.53;;;21.99;46.88
42621;BME280;28252;53.336;-6.298;2022-12-20T00:11:47;99052.16;;;21.97;46.90
42621;BME280;28252;53.336;-6.298;2022-12-20T00:12:19;99045.72;;;21.98;46.87
42621;BME280;28252;53.336;-6.298;2022-12-20T00:12:50;99051.56;;;21.95;46.93
42621;BME280;28252;53.336;-6.298;2022-12-20T00:13:21;99048.25;;;21.93;47.09
42621;BME280;28252;53.336;-6.298;2022-12-20T00:13:52;99050.13;;;21.93;47.08
42621;BME280;28252;53.336;-6.298;2022-12-20T00:14:23;99053.69;;;21.93;46.92
42621;BME280;28252;53.336;-6.298;2022-12-20T00:14:55;99052.59;;;21.94;46.94
42621;BME280;28252;53.336;-6.298;2022-12-20T00:15:26;99049.91;;;21.94;46.94
42621;BME280;28252;53.336;-6.298;2022-12-20T00:16:08;99056.59;;;21.92;46.93
42621;BME280;28252;53.336;-6.298;2022-12-20T00:16:39;99051.19;;;21.92;46.98
42621;BME280;28252;53.336;-6.298;2022-12-20T00:17:10;99047.63;;;21.91;46.95
42621;BME280;28252;53.336;-6.298;2022-12-20T00:17:41;99055.75;;;21.91;46.92
42621;BME280;28252;53.336;-6.298;2022-12-20T00:18:13;99055.16;;;21.89;47.00
42621;BME280;28252;53.336;-6.298;2022-12-20T00:18:45;99046.19;;;21.89;47.00
42621;BME280;28252;53.336;-6.298;2022-12-20T00:19:17;99052.66;;;21.88;47.14
42621;BME280;28252;53.336;-6.298;2022-12-20T00:19:49;99045.38;;;21.88;47.11
42621;BME280;28252;53.336;-6.298;2022-12-20T00:20:20;99049.94;;;21.88;47.07
42621;BME280;28252;53.336;-6.298;2022-12-20T00:20:56;99045.38;;;21.88;47.07
42621;BME280;28252;53.336;-6.298;2022-12-20T00:21:28;99049.94;;;21.88;46.97
42621;BME280;28252;53.336;-6.298;2022-12-20T00:21:59;99055.38;;;21.88;46.85
42621;BME280;28252;53.336;-6.298;2022-12-20T00:22:31;99048.91;;;21.89;47.03
42621;BME280;28252;53.336;-6.298;2022-12-20T00:23:02;99053.50;;;21.88;46.95
42621;BME280;28252;53.336;-6.298;2022-12-20T00:23:34;99057.25;;;21.87;47.09
42621;BME280;28252;53.336;-6.298;2022-12-20T00:24:06;99057.47;;;21.86;46.96
42621;BME280;28252;53.336;-6.298;2022-12-20T00:24:37;99057.47;;;21.86;47.02
42621;BME280;28252;53.336;-6.298;2022-12-20T00:25:08;99052.88;;;21.86;46.95
42621;BME280;28252;53.336;-6.298;2022-12-20T00:25:40;99051.25;;;21.85;47.05
42621;BME280;28252;53.336;-6.298;2022-12-20T00:26:12;99058.56;;;21.85;47.04
42621;BME280;28252;53.336;-6.298;2022-12-20T00:26:44;99051.47;;;21.83;47.17
42621;BME280;28252;53.336;-6.298;2022-12-20T00:27:15;99056.06;;;21.83;47.07
42621;BME280;28252;53.336;-6.298;2022-12-20T00:27:47;99057.91;;;21.82;47.25
42621;BME280;28252;53.336;-6.298;2022-12-20T00:28:18;99051.69;;;21.82;47.15
42621;BME280;28252;53.336;-6.298;2022-12-20T00:28:49;99056.88;;;21.83;47.07
42621;BME280;28252;53.336;-6.298;2022-12-20T00:29:21;99053.13;;;21.85;47.08
42621;BME280;28252;53.336;-6.298;2022-12-20T00:29:52;99047.06;;;21.82;47.11
42621;BME280;28252;53.336;-6.298;2022-12-20T00:30:23;99052.50;;;21.82;47.10
42621;BME280;28252;53.336;-6.298;2022-12-20T00:30:54;99057.31;;;21.80;47.23
42621;BME280;28252;53.336;-6.298;2022-12-20T00:31:26;99051.91;;;21.80;47.11
42621;BME280;28252;53.336;-6.298;2022-12-20T00:31:57;99050.25;;;21.79;47.25
42621;BME280;28252;53.336;-6.298;2022-12-20T00:32:28;99046.91;;;21.77;47.19
42621;BME280;28252;53.336;-6.298;2022-12-20T00:32:59;99050.47;;;21.78;47.15
42621;BME280;28252;53.336;-6.298;2022-12-20T00:33:31;99048.59;;;21.78;47.26
42621;BME280;28252;53.336;-6.298;2022-12-20T00:34:03;99048.59;;;21.78;47.27
42621;BME280;28252;53.336;-6.298;2022-12-20T00:34:35;99046.91;;;21.77;47.40
42621;BME280;28252;53.336;-6.298;2022-12-20T00:35:06;99048.59;;;21.78;47.19
42621;BME280;28252;53.336;-6.298;2022-12-20T00:35:40;99051.28;;;21.78;47.12
42621;BME280;28252;53.336;-6.298;2022-12-20T00:36:11;99047.13;;;21.76;47.38
42621;BME280;28252;53.336;-6.298;2022-12-20T00:36:43;99045.72;;;21.73;47.40
42621;BME280;28252;53.336;-6.298;2022-12-20T00:37:16;99038.41;;;21.74;47.35
42621;BME280;28252;53.336;-6.298;2022-12-20T00:37:47;99049.84;;;21.76;47.28
42621;BME280;28252;53.336;-6.298;2022-12-20T00:38:18;99044.19;;;21.77;47.30
42621;BME280;28252;53.336;-6.298;2022-12-20T00:38:50;99043.59;;;21.75;47.24
42621;BME280;28252;53.336;-6.298;2022-12-20T00:39:22;99040.06;;;21.75;47.29
42621;BME280;28252;53.336;-6.298;2022-12-20T00:39:53;99040.28;;;21.73;47.35
42621;BME280;28252;53.336;-6.298;2022-12-20T00:40:24;99040.28;;;21.73;47.35
42621;BME280;28252;53.336;-6.298;2022-12-20T00:41:02;99045.09;;;21.71;47.30
42621;BME280;28252;53.336;-6.298;2022-12-20T00:41:34;99043.44;;;21.70;47.37
42621;BME280;28252;53.336;-6.298;2022-12-20T00:42:05;99049.66;;;21.71;47.36
42621;BME280;28252;53.336;-6.298;2022-12-20T00:42:36;99042.41;;;21.71;47.30
42621;BME280;28252;53.336;-6.298;2022-12-20T00:43:07;99042.41;;;21.71;47.29
42621;BME280;28252;53.336;-6.298;2022-12-20T00:43:39;99042.19;;;21.73;47.27
42621;BME280;28252;53.336;-6.298;2022-12-20T00:44:10;99045.09;;;21.71;47.30
42621;BME280;28252;53.336;-6.298;2022-12-20T00:44:42;99045.09;;;21.71;47.33
42621;BME280;28252;53.336;-6.298;2022-12-20T00:45:13;99044.25;;;21.71;47.34
42621;BME280;28252;53.336;-6.298;2022-12-20T00:45:44;99044.25;;;21.71;47.30
42621;BME280;28252;53.336;-6.298;2022-12-20T00:46:16;99041.78;;;21.69;47.30
42621;BME280;28252;53.336;-6.298;2022-12-20T00:46:47;99042.59;;;21.70;47.42
42621;BME280;28252;53.336;-6.298;2022-12-20T00:47:18;99041.78;;;21.69;47.38
42621;BME280;28252;53.336;-6.298;2022-12-20T00:47:50;99041.78;;;21.69;47.41
42621;BME280;28252;53.336;-6.298;2022-12-20T00:48:23;99045.53;;;21.68;47.28
42621;BME280;28252;53.336;-6.298;2022-12-20T00:48:55;99049.06;;;21.69;47.35
42621;BME280;28252;53.336;-6.298;2022-12-20T00:49:26;99040.94;;;21.69;47.36
42621;BME280;28252;53.336;-6.298;2022-12-20T00:49:57;99050.13;;;21.68;47.39
42621;BME280;28252;53.336;-6.298;2022-12-20T00:50:28;99048.47;;;21.67;47.43
42621;BME280;28252;53.336;-6.298;2022-12-20T00:51:01;99041.38;;;21.66;47.50
42621;BME280;28252;53.336;-6.298;2022-12-20T00:51:34;99052.22;;;21.66;47.56
42621;BME280;28252;53.336;-6.298;2022-12-20T00:52:05;99046.56;;;21.67;47.42
42621;BME280;28252;53.336;-6.298;2022-12-20T00:52:37;99039.94;;;21.63;47.67
42621;BME280;28252;53.336;-6.298;2022-12-20T00:53:08;99037.25;;;21.63;47.51
42621;BME280;28252;53.336;-6.298;2022-12-20T00:53:40;99044.34;;;21.64;47.55
42621;BME280;28252;53.336;-6.298;2022-12-20T00:54:12;99049.75;;;21.64;47.49
42621;BME280;28252;53.336;-6.298;2022-12-20T00:54:43;99036.41;;;21.62;47.52
42621;BME280;28252;53.336;-6.298;2022-12-20T00:55:14;99037.84;;;21.65;47.84
42621;BME280;28252;53.336;-6.298;2022-12-20T00:55:46;99043.25;;;21.65;47.41
42621;BME280;28252;53.336;-6.298;2022-12-20T00:56:17;99038.06;;;21.63;47.45
42621;BME280;28252;53.336;-6.298;2022-12-20T00:56:49;99038.06;;;21.63;47.64
42621;BME280;28252;53.336;-6.298;2022-12-20T00:57:21;99039.94;;;21.63;47.68
42621;BME280;28252;53.336;-6.298;2022-12-20T00:57:52;99042.66;;;21.63;47.67
42621;BME280;28252;53.336;-6.298;2022-12-20T00:58:25;99040.97;;;21.62;47.58
42621;BME280;28252;53.336;-6.298;2022-12-20T00:58:57;99038.28;;;21.62;47.71
42621;BME280;28252;53.336;-6.298;2022-12-20T00:59:28;99040.78;;;21.63;47.53
42621;BME280;28252;53.336;-6.298;2022-12-20T01:00:00;99036.41;;;21.62;47.66
42621;BME280;28252;53.336;-6.298;2022-12-20T01:00:31;99036.41;;;21.62;47.77
42621;BME280;28252;53.336;-6.298;2022-12-20T01:01:03;99036.41;;;21.62;47.67
42621;BME280;28252;53.336;-6.298;2022-12-20T01:01:35;99040.97;;;21.62;47.71
42621;BME280;28252;53.336;-6.298;2022-12-20T01:02:06;99034.75;;;21.61;47.65
42621;BME280;28252;53.336;-6.298;2022-12-20T01:02:37;99036.41;;;21.62;47.73
42621;BME280;28252;53.336;-6.298;2022-12-20T01:03:08;99036.63;;;21.61;47.78
42621;BME280;28252;53.336;-6.298;2022-12-20T01:03:40;99040.97;;;21.62;47.66
42621;BME280;28252;53.336;-6.298;2022-12-20T01:04:11;99043.31;;;21.58;47.82
42621;BME280;28252;53.336;-6.298;2022-12-20T01:04:43;99049.53;;;21.59;47.78
42621;BME280;28252;53.336;-6.298;2022-12-20T01:05:14;99048.50;;;21.60;47.74
42621;BME280;28252;53.336;-6.298;2022-12-20T01:05:53;99044.13;;;21.59;47.69
42621;BME280;28252;53.336;-6.298;2022-12-20T01:06:25;99046.84;;;21.59;47.73
42621;BME280;28252;53.336;-6.298;2022-12-20T01:06:56;99041.03;;;21.55;47.95
42621;BME280;28252;53.336;-6.298;2022-12-20T01:07:27;99042.91;;;21.55;47.89
42621;BME280;28252;53.336;-6.298;2022-12-20T01:07:59;99043.97;;;21.54;47.99
42621;BME280;28252;53.336;-6.298;2022-12-20T01:08:30;99048.56;;;21.53;47.96
42621;BME280;28252;53.336;-6.298;2022-12-20T01:09:01;99050.44;;;21.53;47.97
42621;BME280;28252;53.336;-6.298;2022-12-20T01:09:33;99045.25;;;21.51;47.85
42621;BME280;28252;53.336;-6.298;2022-12-20T01:10:04;99046.06;;;21.52;47.84
42621;BME280;28252;53.336;-6.298;2022-12-20T01:10:36;99045.25;;;21.51;47.94
42621;BME280;28252;53.336;-6.298;2022-12-20T01:11:08;99049.00;;;21.50;47.91
42621;BME280;28252;53.336;-6.298;2022-12-20T01:11:41;99053.59;;;21.50;48.06
42621;BME280;28252;53.336;-6.298;2022-12-20T01:12:12;99052.75;;;21.49;48.00
42621;BME280;28252;53.336;-6.298;2022-12-20T01:12:43;99051.91;;;21.49;48.11
42621;BME280;28252;53.336;-6.298;2022-12-20T01:13:14;99055.69;;;21.48;48.08
42621;BME280;28252;53.336;-6.298;2022-12-20T01:13:47;99055.47;;;21.49;47.96
42621;BME280;28252;53.336;-6.298;2022-12-20T01:14:18;99055.69;;;21.48;48.03
42621;BME280;28252;53.336;-6.298;2022-12-20T01:14:49;99054.00;;;21.47;48.13
42621;BME280;28252;53.336;-6.298;2022-12-20T01:15:20;99050.28;;;21.48;48.13
42621;BME280;28252;53.336;-6.298;2022-12-20T01:15:52;99048.78;;;21.45;48.12
42621;BME280;28252;53.336;-6.298;2022-12-20T01:16:29;99048.59;;;21.47;48.09
42621;BME280;28252;53.336;-6.298;2022-12-20T01:17:00;99054.41;;;21.43;48.20
42621;BME280;28252;53.336;-6.298;2022-12-20T01:17:31;99053.38;;;21.44;48.15
42621;BME280;28252;53.336;-6.298;2022-12-20T01:18:02;99048.78;;;21.45;48.26
42621;BME280;28252;53.336;-6.298;2022-12-20T01:18:34;99050.28;;;21.48;48.08
42621;BME280;28252;53.336;-6.298;2022-12-20T01:19:05;99049.63;;;21.45;48.02
42621;BME280;28252;53.336;-6.298;2022-12-20T01:19:37;99047.13;;;21.44;47.98
42621;BME280;28252;53.336;-6.298;2022-12-20T01:20:08;99052.78;;;21.42;48.16
42621;BME280;28252;53.336;-6.298;2022-12-20T01:20:39;99047.34;;;21.42;48.20
42621;BME280;28252;53.336;-6.298;2022-12-20T01:21:11;99049.25;;;21.42;48.07
42621;BME280;28252;53.336;-6.298;2022-12-20T01:21:43;99052.78;;;21.42;48.06
42621;BME280;28252;53.336;-6.298;2022-12-20T01:22:14;99047.34;;;21.42;48.17
42621;BME280;28252;53.336;-6.298;2022-12-20T01:22:45;99045.69;;;21.41;48.13
42621;BME280;28252;53.336;-6.298;2022-12-20T01:23:17;99051.09;;;21.41;48.03
42621;BME280;28252;53.336;-6.298;2022-12-20T01:23:48;99053.59;;;21.43;47.97
42621;BME280;28252;53.336;-6.298;2022-12-20T01:24:19;99049.47;;;21.40;48.15
42621;BME280;28252;53.336;-6.298;2022-12-20T01:24:51;99054.88;;;21.40;48.12
42621;BME280;28252;53.336;-6.298;2022-12-20T01:25:22;99054.88;;;21.40;48.18
42621;BME280;28252;53.336;-6.298;2022-12-20T01:25:53;99056.53;;;21.41;48.05
42621;BME280;28252;53.336;-6.298;2022-12-20T01:26:25;99061.31;;;21.39;48.11
42621;BME280;28252;53.336;-6.298;2022-12-20T01:26:56;99059.66;;;21.38;48.12
42621;BME280;28252;53.336;-6.298;2022-12-20T01:27:27;99060.28;;;21.40;48.00
42621;BME280;28252;53.336;-6.298;2022-12-20T01:27:58;99059.44;;;21.40;48.10
42621;BME280;28252;53.336;-6.298;2022-12-20T01:28:30;99054.03;;;21.40;48.13
42621;BME280;28252;53.336;-6.298;2022-12-20T01:29:01;99057.59;;;21.40;47.99
42621;BME280;28252;53.336;-6.298;2022-12-20T01:29:32;99061.31;;;21.39;48.21
42621;BME280;28252;53.336;-6.298;2022-12-20T01:30:03;99055.91;;;21.39;48.11
42621;BME280;28252;53.336;-6.298;2022-12-20T01:30:38;99063.00;;;21.40;48.13
42621;BME280;28252;53.336;-6.298;2022-12-20T01:31:11;99059.66;;;21.38;48.17
42621;BME280;28252;53.336;-6.298;2022-12-20T01:31:43;99055.31;;;21.37;48.12
42621;BME280;28252;53.336;-6.298;2022-12-20T01:32:14;99059.06;;;21.36;48.26
42621;BME280;28252;53.336;-6.298;2022-12-20T01:32:45;99060.72;;;21.37;48.18
42621;BME280;28252;53.336;-6.298;2022-12-20T01:33:17;99057.19;;;21.37;48.26
42621;BME280;28252;53.336;-6.298;2022-12-20T01:33:48;99064.69;;;21.35;48.24
42621;BME280;28252;53.336;-6.298;2022-12-20T01:34:19;99063.88;;;21.34;48.46
42621;BME280;28252;53.336;-6.298;2022-12-20T01:34:52;99061.16;;;21.34;48.33
42621;BME280;28252;53.336;-6.298;2022-12-20T01:35:23;99062.81;;;21.35;48.22
42621;BME280;28252;53.336;-6.298;2022-12-20T01:35:55;99063.88;;;21.34;48.33
42621;BME280;28252;53.336;-6.298;2022-12-20T01:36:28;99063.25;;;21.32;48.51
42621;BME280;28252;53.336;-6.298;2022-12-20T01:36:59;99066.78;;;21.33;48.49
42621;BME280;28252;53.336;-6.298;2022-12-20T01:37:31;99062.19;;;21.33;48.23
42621;BME280;28252;53.336;-6.298;2022-12-20T01:38:02;99062.19;;;21.33;48.43
42621;BME280;28252;53.336;-6.298;2022-12-20T01:38:33;99064.06;;;21.33;48.38
42621;BME280;28252;53.336;-6.298;2022-12-20T01:39:10;99067.38;;;21.35;48.52
42621;BME280;28252;53.336;-6.298;2022-12-20T01:39:42;99069.28;;;21.34;48.33
42621;BME280;28252;53.336;-6.298;2022-12-20T01:40:13;99069.50;;;21.33;48.47
42621;BME280;28252;53.336;-6.298;2022-12-20T01:40:45;99064.91;;;21.33;48.46
42621;BME280;28252;53.336;-6.298;2022-12-20T01:41:17;99071.16;;;21.34;48.42
42621;BME280;28252;53.336;-6.298;2022-12-20T01:41:49;99069.28;;;21.34;48.41
42621;BME280;28252;53.336;-6.298;2022-12-20T01:42:20;99063.88;;;21.34;48.43
42621;BME280;28252;53.336;-6.298;2022-12-20T01:42:52;99067.59;;;21.33;48.35
42621;BME280;28252;53.336;-6.298;2022-12-20T01:43:25;99068.66;;;21.32;48.48
42621;BME280;28252;53.336;-6.298;2022-12-20T01:44:54;99071.38;;;21.32;48.33
42621;BME280;28252;53.336;-6.298;2022-12-20T01:45:27;99068.66;;;21.32;48.43
42621;BME280;28252;53.336;-6.298;2022-12-20T01:45:58;99067.00;;;21.31;48.48
42621;BME280;28252;53.336;-6.298;2022-12-20T01:46:34;99073.69;;;21.29;48.55
42621;BME280;28252;53.336;-6.298;2022-12-20T01:47:05;99064.94;;;21.26;48.59
42621;BME280;28252;53.336;-6.298;2022-12-20T01:47:37;99072.03;;;21.27;48.61
42621;BME280;28252;53.336;-6.298;2022-12-20T01:48:08;99063.91;;;21.27;48.61
42621;BME280;28252;53.336;-6.298;2022-12-20T01:48:41;99061.19;;;21.27;48.51
42621;BME280;28252;53.336;-6.298;2022-12-20T01:49:15;99060.38;;;21.27;48.50
42621;BME280;28252;53.336;-6.298;2022-12-20T01:49:48;99063.06;;;21.27;48.58
42621;BME280;28252;53.336;-6.298;2022-12-20T01:50:21;99066.00;;;21.25;48.60
42621;BME280;28252;53.336;-6.298;2022-12-20T01:50:54;99069.53;;;21.26;48.68
42621;BME280;28252;53.336;-6.298;2022-12-20T01:51:25;99061.41;;;21.26;48.58
42621;BME280;28252;53.336;-6.298;2022-12-20T01:51:59;99067.88;;;21.25;48.84
42621;BME280;28252;53.336;-6.298;2022-12-20T01:52:40;99059.13;;;21.23;48.71
42621;BME280;28252;53.336;-6.298;2022-12-20T01:53:13;99067.03;;;21.24;48.64
42621;BME280;28252;53.336;-6.298;2022-12-20T01:53:46;99069.94;;;21.23;48.64
42621;BME280;28252;53.336;-6.298;2022-12-20T01:54:18;99066.22;;;21.24;48.71
42621;BME280;28252;53.336;-6.298;2022-12-20T01:54:53;99068.31;;;21.22;48.83
42621;BME280;28252;53.336;-6.298;2022-12-20T01:55:25;99059.13;;;21.23;48.68
42621;BME280;28252;53.336;-6.298;2022-12-20T01:56:00;99062.91;;;21.22;48.68
42621;BME280;28252;53.336;-6.298;2022-12-20T01:56:33;99060.78;;;21.24;48.72
42621;BME280;28252;53.336;-6.298;2022-12-20T01:57:07;99055.81;;;21.21;48.79
42621;BME280;28252;53.336;-6.298;2022-12-20T01:57:42;99065.00;;;21.20;48.94
42621;BME280;28252;53.336;-6.298;2022-12-20T01:58:15;99061.22;;;21.21;48.70
42621;BME280;28252;53.336;-6.298;2022-12-20T01:58:48;99062.91;;;21.22;48.82
42621;BME280;28252;53.336;-6.298;2022-12-20T01:59:21;99061.22;;;21.21;48.81
42621;BME280;28252;53.336;-6.298;2022-12-20T01:59:53;99057.69;;;21.20;48.78
42621;BME280;28252;53.336;-6.298;2022-12-20T02:00:26;99061.22;;;21.21;48.85
42621;BME280;28252;53.336;-6.298;2022-12-20T02:00:58;99059.59;;;21.20;48.74
42621;BME280;28252;53.336;-6.298;2022-12-20T02:01:29;99061.22;;;21.21;48.83
42621;BME280;28252;53.336;-6.298;2022-12-20T02:02:01;99069.34;;;21.21;48.74
42621;BME280;28252;53.336;-6.298;2022-12-20T02:02:34;99055.81;;;21.21;48.85
42621;BME280;28252;53.336;-6.298;2022-12-20T02:03:06;99057.91;;;21.19;48.79
42621;BME280;28252;53.336;-6.298;2022-12-20T02:03:39;99062.50;;;21.18;48.91
42621;BME280;28252;53.336;-6.298;2022-12-20T02:04:12;99070.63;;;21.18;48.90
42621;BME280;28252;53.336;-6.298;2022-12-20T02:04:44;99059.78;;;21.18;49.00
42621;BME280;28252;53.336;-6.298;2022-12-20T02:05:18;99066.47;;;21.16;48.84
42621;BME280;28252;53.336;-6.298;2022-12-20T02:05:49;99070.84;;;21.17;49.00
42621;BME280;28252;53.336;-6.298;2022-12-20T02:06:22;99062.94;;;21.15;48.95
42621;BME280;28252;53.336;-6.298;2022-12-20T02:06:53;99062.72;;;21.17;48.89
42621;BME280;28252;53.336;-6.298;2022-12-20T02:07:25;99064.56;;;21.16;48.81
42621;BME280;28252;53.336;-6.298;2022-12-20T02:07:57;99065.44;;;21.17;48.94
42621;BME280;28252;53.336;-6.298;2022-12-20T02:08:28;99062.09;;;21.15;48.82
42621;BME280;28252;53.336;-6.298;2022-12-20T02:08:59;99065.84;;;21.14;49.10
42621;BME280;28252;53.336;-6.298;2022-12-20T02:09:33;99068.34;;;21.15;49.00
42621;BME280;28252;53.336;-6.298;2022-12-20T02:10:05;99060.44;;;21.14;48.95
42621;BME280;28252;53.336;-6.298;2022-12-20T02:12:37;99062.72;;;21.17;48.89
42621;BME280;28252;53.336;-6.298;2022-12-20T02:13:11;99060.81;;;21.17;48.74
42621;BME280;28252;53.336;-6.298;2022-12-20T02:18:42;99062.53;;;21.12;48.82
42621;BME280;28252;53.336;-6.298;2022-12-20T02:22:15;99071.09;;;21.08;49.06
42621;BME280;28252;53.336;-6.298;2022-12-20T02:24:38;99068.81;;;21.05;49.08
42621;BME280;28252;53.336;-6.298;2022-12-20T02:27:33;99072.56;;;21.04;49.03
42621;BME280;28252;53.336;-6.298;2022-12-20T02:30:09;99080.06;;;21.02;49.22
42621;BME280;28252;53.336;-6.298;2022-12-20T02:30:41;99073.81;;;21.02;49.23
42621;BME280;28252;53.336;-6.298;2022-12-20T02:31:14;99080.25;;;21.01;49.21
42621;BME280;28252;53.336;-6.298;2022-12-20T02:31:54;99085.47;;;21.02;49.25
42621;BME280;28252;53.336;-6.298;2022-12-20T02:33:19;99080.06;;;21.02;49.11
42621;BME280;28252;53.336;-6.298;2022-12-20T02:33:52;99077.34;;;21.02;49.21
42621;BME280;28252;53.336;-6.298;2022-12-20T02:34:25;99085.47;;;21.02;49.17
42621;BME280;28252;53.336;-6.298;2022-12-20T02:34:57;99079.84;;;21.04;49.09
42621;BME280;28252;53.336;-6.298;2022-12-20T02:35:30;99082.53;;;21.04;49.21
42621;BME280;28252;53.336;-6.298;2022-12-20T02:36:02;99073.59;;;21.03;49.20
42621;BME280;28252;53.336;-6.298;2022-12-20T02:36:33;99074.63;;;21.02;49.22
42621;BME280;28252;53.336;-6.298;2022-12-20T02:37:04;99081.13;;;21.01;49.28
42621;BME280;28252;53.336;-6.298;2022-12-20T02:37:45;99087.34;;;21.02;49.36
42621;BME280;28252;53.336;-6.298;2022-12-20T02:38:29;99078.41;;;21.01;49.45
42621;BME280;28252;53.336;-6.298;2022-12-20T02:39:01;99084.03;;;21.00;49.35
42621;BME280;28252;53.336;-6.298;2022-12-20T02:39:32;99090.47;;;20.99;49.49
42621;BME280;28252;53.336;-6.298;2022-12-20T02:40:04;99084.03;;;21.00;49.58
42621;BME280;28252;53.336;-6.298;2022-12-20T02:40:38;99087.56;;;21.00;49.62
42621;BME280;28252;53.336;-6.298;2022-12-20T02:41:42;99086.75;;;21.00;49.49
42621;BME280;28252;53.336;-6.298;2022-12-20T02:42:17;99082.38;;;20.99;49.59
42621;BME280;28252;53.336;-6.298;2022-12-20T02:42:52;99088.59;;;20.99;49.70
42621;BME280;28252;53.336;-6.298;2022-12-20T02:43:25;99084.25;;;20.98;49.51
42621;BME280;28252;53.336;-6.298;2022-12-20T02:44:17;99088.00;;;20.97;49.75
42621;BME280;28252;53.336;-6.298;2022-12-20T02:45:08;99085.50;;;20.96;49.63
42621;BME280;28252;53.336;-6.298;2022-12-20T02:45:46;99078.00;;;20.98;49.62
42621;BME280;28252;53.336;-6.298;2022-12-20T02:46:17;99086.13;;;20.98;49.78
42621;BME280;28252;53.336;-6.298;2022-12-20T02:46:49;99081.75;;;20.97;49.59
42621;BME280;28252;53.336;-6.298;2022-12-20T02:48:28;99082.56;;;20.97;49.50
42621;BME280;28252;53.336;-6.298;2022-12-20T02:49:02;99082.38;;;20.99;49.57
42621;BME280;28252;53.336;-6.298;2022-12-20T02:49:36;99086.34;;;20.96;49.57
42621;BME280;28252;53.336;-6.298;2022-12-20T02:50:12;99083.44;;;20.98;49.55
42621;BME280;28252;53.336;-6.298;2022-12-20T02:50:46;99091.31;;;20.99;49.53
42621;BME280;28252;53.336;-6.298;2022-12-20T02:51:20;99088.00;;;20.97;49.67
42621;BME280;28252;53.336;-6.298;2022-12-20T02:51:53;99090.91;;;20.96;49.54
42621;BME280;28252;53.336;-6.298;2022-12-20T02:52:27;99085.50;;;20.96;49.68
42621;BME280;28252;53.336;-6.298;2022-12-20T02:53:00;99086.34;;;20.96;49.65
42621;BME280;28252;53.336;-6.298;2022-12-20T02:53:32;99092.56;;;20.97;49.50
42621;BME280;28252;53.336;-6.298;2022-12-20T02:54:04;99093.41;;;20.97;49.57
42621;BME280;28252;53.336;-6.298;2022-12-20T02:54:36;99090.91;;;20.96;49.66
42621;BME280;28252;53.336;-6.298;2022-12-20T02:55:07;99085.69;;;20.94;49.66
42621;BME280;28252;53.336;-6.298;2022-12-20T02:55:41;99086.34;;;20.96;49.59
42621;BME280;28252;53.336;-6.298;2022-12-20T02:56:19;99093.81;;;20.94;49.69
42621;BME280;28252;53.336;-6.298;2022-12-20T02:57:07;99089.25;;;20.95;49.49
42621;BME280;28252;53.336;-6.298;2022-12-20T02:57:48;99090.50;;;20.92;49.66
42621;BME280;28252;53.336;-6.298;2022-12-20T02:59:20;99085.50;;;20.89;49.81
42621;BME280;28252;53.336;-6.298;2022-12-20T03:00:07;99090.09;;;20.88;49.73
42621;BME280;28252;53.336;-6.298;2022-12-20T03:00:41;99087.19;;;20.90;49.60
42621;BME280;28252;53.336;-6.298;2022-12-20T03:01:16;99087.19;;;20.90;49.71
42621;BME280;28252;53.336;-6.298;2022-12-20T03:01:53;99087.63;;;20.87;49.85
42621;BME280;28252;53.336;-6.298;2022-12-20T03:02:24;99093.63;;;20.89;49.74
42621;BME280;28252;53.336;-6.298;2022-12-20T03:02:57;99092.00;;;20.88;49.74
42621;BME280;28252;53.336;-6.298;2022-12-20T03:03:47;99083.88;;;20.88;49.66
42621;BME280;28252;53.336;-6.298;2022-12-20T03:04:21;99088.22;;;20.89;49.71
42621;BME280;28252;53.336;-6.298;2022-12-20T03:04:53;99078.47;;;20.88;49.68
42621;BME280;28252;53.336;-6.298;2022-12-20T03:05:25;99082.81;;;20.89;49.62
42621;BME280;28252;53.336;-6.298;2022-12-20T03:05:57;99090.94;;;20.89;49.57
42621;BME280;28252;53.336;-6.298;2022-12-20T03:06:29;99089.28;;;20.88;49.75
42621;BME280;28252;53.336;-6.298;2022-12-20T03:07:34;99092.00;;;20.88;49.56
42621;BME280;28252;53.336;-6.298;2022-12-20T03:08:05;99092.59;;;20.90;49.49
42621;BME280;28252;53.336;-6.298;2022-12-20T03:08:36;99094.28;;;20.91;49.57
42621;BME280;28252;53.336;-6.298;2022-12-20T03:09:07;99091.78;;;20.89;49.64
42621;BME280;28252;53.336;-6.298;2022-12-20T03:09:41;99097.41;;;20.88;49.70
42621;BME280;28252;53.336;-6.298;2022-12-20T03:10:12;99091.38;;;20.86;49.61
42621;BME280;28252;53.336;-6.298;2022-12-20T03:10:44;99093.03;;;20.87;49.56
42621;BME280;28252;53.336;-6.298;2022-12-20T03:11:15;99091.38;;;20.86;49.73